sensor_id;sensor_type;location;lat;lon;timestamp;temperature;humidity
49855;DHT22;35752;52.164;21.244;2022-09-29T00:01:20;9.90;99.90
49855;DHT22;35752;52.164;21.244;2022-09-29T00:03:46;9.90;99.90
49855;DHT22;35752;52.164;21.244;2022-09-29T00:06:12;10.00;99.90
49855;DHT22;35752;52.164;21.244;2022-09-29T00:08:38;9.90;99.90
49855;DHT22;35752;52.164;21.244;2022-09-29T00:11:07;10.00;99.90
49855;DHT22;35752;52.164;21.244;2022-09-29T00:13:33;9.90;99.90
49855;DHT22;35752;52.164;21.244;2022-09-29T00:16:00;9.90;99.90
49855;DHT22;35752;52.164;21.244;2022-09-29T00:18:26;9.80;99.90
49855;DHT22;35752;52.164;21.244;2022-09-29T00:20:59;9.90;99.90
49855;DHT22;35752;52.164;21.244;2022-09-29T00:23:25;9.90;99.90
49855;DHT22;35752;52.164;21.244;2022-09-29T00:26:04;9.80;99.90
49855;DHT22;35752;52.164;21.244;2022-09-29T00:28:30;9.80;99.90
49855;DHT22;35752;52.164;21.244;2022-09-29T00:30:57;9.90;99.90
49855;DHT22;35752;52.164;21.244;2022-09-29T00:33:23;9.90;99.90
49855;DHT22;35752;52.164;21.244;2022-09-29T00:35:55;9.80;99.90
49855;DHT22;35752;52.164;21.244;2022-09-29T00:38:20;9.70;99.90
49855;DHT22;35752;52.164;21.244;2022-09-29T00:40:46;9.70;99.90
49855;DHT22;35752;52.164;21.244;2022-09-29T00:43:12;9.70;99.90
49855;DHT22;35752;52.164;21.244;2022-09-29T00:45:44;9.70;99.90
49855;DHT22;35752;52.164;21.244;2022-09-29T00:48:11;9.60;99.90
49855;DHT22;35752;52.164;21.244;2022-09-29T00:50:41;9.70;99.90
49855;DHT22;35752;52.164;21.244;2022-09-29T00:53:08;9.70;99.90
49855;DHT22;35752;52.164;21.244;2022-09-29T00:55:41;9.70;99.90
49855;DHT22;35752;52.164;21.244;2022-09-29T00:58:10;9.70;99.90
49855;DHT22;35752;52.164;21.244;2022-09-29T01:00:37;9.70;99.90
49855;DHT22;35752;52.164;21.244;2022-09-29T01:03:07;9.70;99.90
49855;DHT22;35752;52.164;21.244;2022-09-29T01:05:36;9.70;99.90
49855;DHT22;35752;52.164;21.244;2022-09-29T01:08:05;9.70;99.90
49855;DHT22;35752;52.164;21.244;2022-09-29T01:10:34;9.70;99.90
49855;DHT22;35752;52.164;21.244;2022-09-29T01:12:59;9.70;99.90
49855;DHT22;35752;52.164;21.244;2022-09-29T01:15:25;9.60;99.90
49855;DHT22;35752;52.164;21.244;2022-09-29T01:17:53;9.60;99.90
49855;DHT22;35752;52.164;21.244;2022-09-29T01:20:20;9.50;99.90
49855;DHT22;35752;52.164;21.244;2022-09-29T01:22:52;9.50;99.90
49855;DHT22;35752;52.164;21.244;2022-09-29T01:30:44;9.50;99.90
49855;DHT22;35752;52.164;21.244;2022-09-29T01:35:46;9.50;99.90
49855;DHT22;35752;52.164;21.244;2022-09-29T01:40:44;9.40;99.90
49855;DHT22;35752;52.164;21.244;2022-09-29T01:43:17;9.30;99.90
49855;DHT22;35752;52.164;21.244;2022-09-29T01:45:54;9.30;99.90
49855;DHT22;35752;52.164;21.244;2022-09-29T01:48:24;9.30;99.90
49855;DHT22;35752;52.164;21.244;2022-09-29T01:50:54;9.30;99.90
49855;DHT22;35752;52.164;21.244;2022-09-29T01:53:22;9.20;99.90
49855;DHT22;35752;52.164;21.244;2022-09-29T01:55:51;9.10;99.90
49855;DHT22;35752;52.164;21.244;2022-09-29T01:58:26;9.10;99.90
49855;DHT22;35752;52.164;21.244;2022-09-29T02:00:53;9.10;99.90
49855;DHT22;35752;52.164;21.244;2022-09-29T02:03:31;9.00;99.90
49855;DHT22;35752;52.164;21.244;2022-09-29T02:06:00;9.00;99.90
49855;DHT22;35752;52.164;21.244;2022-09-29T02:08:29;8.90;99.90
49855;DHT22;35752;52.164;21.244;2022-09-29T02:11:18;8.90;99.90
49855;DHT22;35752;52.164;21.244;2022-09-29T02:13:48;8.80;99.90
49855;DHT22;35752;52.164;21.244;2022-09-29T02:16:16;8.90;99.90
49855;DHT22;35752;52.164;21.244;2022-09-29T02:18:50;8.80;99.90
49855;DHT22;35752;52.164;21.244;2022-09-29T02:21:17;8.80;99.90
49855;DHT22;35752;52.164;21.244;2022-09-29T02:23:43;8.90;99.90
49855;DHT22;35752;52.164;21.244;2022-09-29T02:26:09;8.80;99.90
49855;DHT22;35752;52.164;21.244;2022-09-29T02:28:35;8.80;99.90
49855;DHT22;35752;52.164;21.244;2022-09-29T02:31:01;8.80;99.90
49855;DHT22;35752;52.164;21.244;2022-09-29T02:33:26;8.80;99.90
49855;DHT22;35752;52.164;21.244;2022-09-29T02:36:12;8.80;99.90
49855;DHT22;35752;52.164;21.244;2022-09-29T02:38:42;8.70;99.90
49855;DHT22;35752;52.164;21.244;2022-09-29T02:41:15;8.70;99.90
49855;DHT22;35752;52.164;21.244;2022-09-29T02:47:08;8.70;99.90
49855;DHT22;35752;52.164;21.244;2022-09-29T02:51:52;8.80;99.90
49855;DHT22;35752;52.164;21.244;2022-09-29T02:59:34;8.70;99.90
49855;DHT22;35752;52.164;21.244;2022-09-29T03:02:01;8.80;99.90
49855;DHT22;35752;52.164;21.244;2022-09-29T03:04:27;8.80;99.90
49855;DHT22;35752;52.164;21.244;2022-09-29T03:06:53;8.60;99.90
49855;DHT22;35752;52.164;21.244;2022-09-29T03:09:19;8.60;99.90
49855;DHT22;35752;52.164;21.244;2022-09-29T03:11:44;8.60;99.90
49855;DHT22;35752;52.164;21.244;2022-09-29T03:14:10;8.70;99.90
49855;DHT22;35752;52.164;21.244;2022-09-29T03:16:36;8.60;99.90
49855;DHT22;35752;52.164;21.244;2022-09-29T03:19:04;8.60;99.90
49855;DHT22;35752;52.164;21.244;2022-09-29T03:21:31;8.60;99.90
49855;DHT22;35752;52.164;21.244;2022-09-29T03:23:57;8.60;99.90
49855;DHT22;35752;52.164;21.244;2022-09-29T03:26:23;8.60;99.90
49855;DHT22;35752;52.164;21.244;2022-09-29T03:28:49;8.60;99.90
49855;DHT22;35752;52.164;21.244;2022-09-29T03:31:14;8.60;99.90
49855;DHT22;35752;52.164;21.244;2022-09-29T03:33:40;8.50;99.90
49855;DHT22;35752;52.164;21.244;2022-09-29T03:36:05;8.60;99.90
49855;DHT22;35752;52.164;21.244;2022-09-29T03:38:31;8.60;99.90
49855;DHT22;35752;52.164;21.244;2022-09-29T03:40:57;8.60;99.90
49855;DHT22;35752;52.164;21.244;2022-09-29T03:43:22;8.60;99.90
49855;DHT22;35752;52.164;21.244;2022-09-29T03:45:49;8.60;99.90
49855;DHT22;35752;52.164;21.244;2022-09-29T03:48:14;8.60;99.90
49855;DHT22;35752;52.164;21.244;2022-09-29T03:50:40;8.60;99.90
49855;DHT22;35752;52.164;21.244;2022-09-29T03:53:06;8.60;99.90
49855;DHT22;35752;52.164;21.244;2022-09-29T03:55:31;8.60;99.90
49855;DHT22;35752;52.164;21.244;2022-09-29T03:57:57;8.60;99.90
49855;DHT22;35752;52.164;21.244;2022-09-29T04:00:23;8.70;99.90
49855;DHT22;35752;52.164;21.244;2022-09-29T04:02:48;8.60;99.90
49855;DHT22;35752;52.164;21.244;2022-09-29T04:05:14;8.60;99.90
49855;DHT22;35752;52.164;21.244;2022-09-29T04:07:40;8.50;99.90
49855;DHT22;35752;52.164;21.244;2022-09-29T04:10:05;8.50;99.90
49855;DHT22;35752;52.164;21.244;2022-09-29T04:12:31;8.50;99.90
49855;DHT22;35752;52.164;21.244;2022-09-29T04:14:56;8.40;99.90
49855;DHT22;35752;52.164;21.244;2022-09-29T04:17:22;8.40;99.90
49855;DHT22;35752;52.164;21.244;2022-09-29T04:19:47;8.40;99.90
49855;DHT22;35752;52.164;21.244;2022-09-29T04:22:13;8.50;99.90
49855;DHT22;35752;52.164;21.244;2022-09-29T04:24:40;8.40;99.90
49855;DHT22;35752;52.164;21.244;2022-09-29T04:27:05;8.40;99.90
49855;DHT22;35752;52.164;21.244;2022-09-29T04:29:31;8.40;99.90
49855;DHT22;35752;52.164;21.244;2022-09-29T04:31:56;8.40;99.90
49855;DHT22;35752;52.164;21.244;2022-09-29T04:34:22;8.30;99.90
49855;DHT22;35752;52.164;21.244;2022-09-29T04:36:47;8.40;99.90
49855;DHT22;35752;52.164;21.244;2022-09-29T04:39:13;8.30;99.90
49855;DHT22;35752;52.164;21.244;2022-09-29T04:41:38;8.40;99.90
49855;DHT22;35752;52.164;21.244;2022-09-29T04:44:05;8.30;99.90
49855;DHT22;35752;52.164;21.244;2022-09-29T04:46:31;8.30;99.90
49855;DHT22;35752;52.164;21.244;2022-09-29T04:48:56;8.30;99.90
49855;DHT22;35752;52.164;21.244;2022-09-29T04:51:22;8.30;99.90
49855;DHT22;35752;52.164;21.244;2022-09-29T04:53:47;8.30;99.90
49855;DHT22;35752;52.164;21.244;2022-09-29T04:56:13;8.30;99.90
49855;DHT22;35752;52.164;21.244;2022-09-29T04:58:38;8.30;99.90
49855;DHT22;35752;52.164;21.244;2022-09-29T05:01:05;8.30;99.90
49855;DHT22;35752;52.164;21.244;2022-09-29T05:03:30;8.30;99.90
49855;DHT22;35752;52.164;21.244;2022-09-29T05:05:56;8.30;99.90
49855;DHT22;35752;52.164;21.244;2022-09-29T05:08:21;8.30;99.90
49855;DHT22;35752;52.164;21.244;2022-09-29T05:10:47;8.40;99.90
49855;DHT22;35752;52.164;21.244;2022-09-29T05:13:15;8.40;99.90
49855;DHT22;35752;52.164;21.244;2022-09-29T05:15:41;8.30;99.90
49855;DHT22;35752;52.164;21.244;2022-09-29T05:18:06;8.30;99.90
49855;DHT22;35752;52.164;21.244;2022-09-29T05:20:32;8.40;99.90
49855;DHT22;35752;52.164;21.244;2022-09-29T05:22:57;8.40;99.90
49855;DHT22;35752;52.164;21.244;2022-09-29T05:25:24;8.40;99.90
49855;DHT22;35752;52.164;21.244;2022-09-29T05:27:50;8.40;99.90
49855;DHT22;35752;52.164;21.244;2022-09-29T05:30:15;8.50;99.90
49855;DHT22;35752;52.164;21.244;2022-09-29T05:32:41;8.50;99.90
49855;DHT22;35752;52.164;21.244;2022-09-29T05:35:07;8.50;99.90
49855;DHT22;35752;52.164;21.244;2022-09-29T05:37:32;8.40;99.90
49855;DHT22;35752;52.164;21.244;2022-09-29T05:39:58;8.50;99.90
49855;DHT22;35752;52.164;21.244;2022-09-29T05:42:23;8.60;99.90
49855;DHT22;35752;52.164;21.244;2022-09-29T05:44:50;8.60;99.90
49855;DHT22;35752;52.164;21.244;2022-09-29T05:47:15;8.70;99.90
49855;DHT22;35752;52.164;21.244;2022-09-29T05:49:41;8.70;99.90
49855;DHT22;35752;52.164;21.244;2022-09-29T05:52:06;8.80;99.90
49855;DHT22;35752;52.164;21.244;2022-09-29T05:54:32;8.80;99.90
49855;DHT22;35752;52.164;21.244;2022-09-29T05:56:57;8.80;99.90
49855;DHT22;35752;52.164;21.244;2022-09-29T05:59:23;8.90;99.90
49855;DHT22;35752;52.164;21.244;2022-09-29T06:01:48;8.90;99.90
49855;DHT22;35752;52.164;21.244;2022-09-29T06:04:14;9.00;99.90
49855;DHT22;35752;52.164;21.244;2022-09-29T06:06:41;9.10;99.90
49855;DHT22;35752;52.164;21.244;2022-09-29T06:09:07;9.10;99.90
49855;DHT22;35752;52.164;21.244;2022-09-29T06:11:32;9.30;99.90
49855;DHT22;35752;52.164;21.244;2022-09-29T06:13:58;9.40;99.90
49855;DHT22;35752;52.164;21.244;2022-09-29T06:16:27;9.50;99.90
49855;DHT22;35752;52.164;21.244;2022-09-29T06:18:53;9.60;99.90
49855;DHT22;35752;52.164;21.244;2022-09-29T06:21:20;9.70;99.90
49855;DHT22;35752;52.164;21.244;2022-09-29T06:23:46;9.70;99.90
49855;DHT22;35752;52.164;21.244;2022-09-29T06:26:12;9.80;99.90
49855;DHT22;35752;52.164;21.244;2022-09-29T06:28:38;9.90;99.90
49855;DHT22;35752;52.164;21.244;2022-09-29T06:31:05;9.90;99.90
49855;DHT22;35752;52.164;21.244;2022-09-29T06:33:32;9.80;99.90
49855;DHT22;35752;52.164;21.244;2022-09-29T06:35:58;10.00;99.90
49855;DHT22;35752;52.164;21.244;2022-09-29T06:38:45;10.10;99.90
49855;DHT22;35752;52.164;21.244;2022-09-29T06:41:11;10.10;99.90
49855;DHT22;35752;52.164;21.244;2022-09-29T06:43:37;10.10;99.90
49855;DHT22;35752;52.164;21.244;2022-09-29T06:46:02;10.20;99.90
49855;DHT22;35752;52.164;21.244;2022-09-29T06:48:28;10.20;99.90
49855;DHT22;35752;52.164;21.244;2022-09-29T06:50:54;10.30;99.90
49855;DHT22;35752;52.164;21.244;2022-09-29T06:53:20;10.40;99.90
49855;DHT22;35752;52.164;21.244;2022-09-29T06:55:52;10.40;99.90
49855;DHT22;35752;52.164;21.244;2022-09-29T06:58:18;10.50;99.90
49855;DHT22;35752;52.164;21.244;2022-09-29T07:00:43;10.30;99.90
49855;DHT22;35752;52.164;21.244;2022-09-29T07:03:09;10.20;99.90
49855;DHT22;35752;52.164;21.244;2022-09-29T07:05:34;10.20;99.90
49855;DHT22;35752;52.164;21.244;2022-09-29T07:08:00;10.20;99.90
49855;DHT22;35752;52.164;21.244;2022-09-29T07:10:26;10.20;99.90
49855;DHT22;35752;52.164;21.244;2022-09-29T07:12:51;10.20;99.90
49855;DHT22;35752;52.164;21.244;2022-09-29T07:15:17;10.10;99.90
49855;DHT22;35752;52.164;21.244;2022-09-29T07:17:42;10.00;99.90
49855;DHT22;35752;52.164;21.244;2022-09-29T07:20:08;10.00;99.90
49855;DHT22;35752;52.164;21.244;2022-09-29T07:22:33;10.00;99.90
49855;DHT22;35752;52.164;21.244;2022-09-29T07:24:59;9.90;99.90
49855;DHT22;35752;52.164;21.244;2022-09-29T07:27:24;9.80;99.90
49855;DHT22;35752;52.164;21.244;2022-09-29T07:29:50;9.80;99.90
49855;DHT22;35752;52.164;21.244;2022-09-29T07:32:16;9.80;99.90
49855;DHT22;35752;52.164;21.244;2022-09-29T07:34:42;9.90;99.90
49855;DHT22;35752;52.164;21.244;2022-09-29T07:37:07;10.10;99.90
49855;DHT22;35752;52.164;21.244;2022-09-29T07:39:33;10.20;99.90
49855;DHT22;35752;52.164;21.244;2022-09-29T07:41:58;10.30;99.90
49855;DHT22;35752;52.164;21.244;2022-09-29T07:44:24;10.30;99.90
49855;DHT22;35752;52.164;21.244;2022-09-29T07:46:50;10.00;99.90
49855;DHT22;35752;52.164;21.244;2022-09-29T07:49:15;10.00;99.90
49855;DHT22;35752;52.164;21.244;2022-09-29T07:51:41;9.90;99.90
49855;DHT22;35752;52.164;21.244;2022-09-29T07:54:07;9.90;99.90
49855;DHT22;35752;52.164;21.244;2022-09-29T07:56:32;9.90;99.90
49855;DHT22;35752;52.164;21.244;2022-09-29T07:58:58;9.90;99.90
49855;DHT22;35752;52.164;21.244;2022-09-29T08:01:24;10.10;99.90
49855;DHT22;35752;52.164;21.244;2022-09-29T08:03:50;10.10;99.90
49855;DHT22;35752;52.164;21.244;2022-09-29T08:06:16;10.10;99.90
49855;DHT22;35752;52.164;21.244;2022-09-29T08:08:42;10.20;99.90
49855;DHT22;35752;52.164;21.244;2022-09-29T08:11:10;10.20;99.90
49855;DHT22;35752;52.164;21.244;2022-09-29T08:13:36;10.00;99.90
49855;DHT22;35752;52.164;21.244;2022-09-29T08:16:03;10.00;99.90
49855;DHT22;35752;52.164;21.244;2022-09-29T08:18:28;10.00;99.90
49855;DHT22;35752;52.164;21.244;2022-09-29T08:20:54;10.00;99.90
49855;DHT22;35752;52.164;21.244;2022-09-29T08:23:21;10.00;99.90
49855;DHT22;35752;52.164;21.244;2022-09-29T08:25:47;10.00;99.90
49855;DHT22;35752;52.164;21.244;2022-09-29T08:28:13;10.00;99.90
49855;DHT22;35752;52.164;21.244;2022-09-29T08:30:39;10.10;99.90
49855;DHT22;35752;52.164;21.244;2022-09-29T08:33:04;10.30;99.90
49855;DHT22;35752;52.164;21.244;2022-09-29T08:35:36;10.40;99.90
49855;DHT22;35752;52.164;21.244;2022-09-29T08:38:02;10.50;99.90
49855;DHT22;35752;52.164;21.244;2022-09-29T08:40:28;10.70;99.90
49855;DHT22;35752;52.164;21.244;2022-09-29T08:43:09;10.80;99.90
49855;DHT22;35752;52.164;21.244;2022-09-29T08:45:43;10.70;99.90
49855;DHT22;35752;52.164;21.244;2022-09-29T08:48:16;10.90;99.90
49855;DHT22;35752;52.164;21.244;2022-09-29T08:51:01;11.10;99.90
49855;DHT22;35752;52.164;21.244;2022-09-29T08:53:28;11.20;99.90
49855;DHT22;35752;52.164;21.244;2022-09-29T08:56:02;11.40;99.90
49855;DHT22;35752;52.164;21.244;2022-09-29T08:58:29;11.40;99.90
49855;DHT22;35752;52.164;21.244;2022-09-29T09:01:04;11.50;99.90
49855;DHT22;35752;52.164;21.244;2022-09-29T09:06:09;11.70;99.90
49855;DHT22;35752;52.164;21.244;2022-09-29T09:21:42;11.40;99.90
49855;DHT22;35752;52.164;21.244;2022-09-29T09:24:43;11.40;99.90
49855;DHT22;35752;52.164;21.244;2022-09-29T09:27:01;11.40;99.90
49855;DHT22;35752;52.164;21.244;2022-09-29T09:29:31;11.40;99.90
49855;DHT22;35752;52.164;21.244;2022-09-29T09:32:00;11.60;99.90
49855;DHT22;35752;52.164;21.244;2022-09-29T09:36:57;11.60;99.90
49855;DHT22;35752;52.164;21.244;2022-09-29T09:39:28;11.80;99.90
49855;DHT22;35752;52.164;21.244;2022-09-29T09:41:57;11.90;99.90
49855;DHT22;35752;52.164;21.244;2022-09-29T09:44:33;12.30;99.90
49855;DHT22;35752;52.164;21.244;2022-09-29T09:47:10;12.20;99.90
49855;DHT22;35752;52.164;21.244;2022-09-29T09:49:44;11.70;99.90
49855;DHT22;35752;52.164;21.244;2022-09-29T09:55:04;11.60;99.90
49855;DHT22;35752;52.164;21.244;2022-09-29T10:00:07;12.00;99.90
49855;DHT22;35752;52.164;21.244;2022-09-29T10:02:37;12.30;99.90
49855;DHT22;35752;52.164;21.244;2022-09-29T10:05:02;12.30;99.90
49855;DHT22;35752;52.164;21.244;2022-09-29T10:07:28;12.30;99.90
49855;DHT22;35752;52.164;21.244;2022-09-29T10:09:54;12.40;99.90
49855;DHT22;35752;52.164;21.244;2022-09-29T10:12:22;12.30;99.90
49855;DHT22;35752;52.164;21.244;2022-09-29T10:14:52;12.10;99.90
49855;DHT22;35752;52.164;21.244;2022-09-29T10:17:19;12.10;99.90
49855;DHT22;35752;52.164;21.244;2022-09-29T10:22:17;11.90;99.90
49855;DHT22;35752;52.164;21.244;2022-09-29T10:24:43;12.00;99.90
49855;DHT22;35752;52.164;21.244;2022-09-29T10:27:08;12.00;99.90
49855;DHT22;35752;52.164;21.244;2022-09-29T10:29:39;12.00;99.90
49855;DHT22;35752;52.164;21.244;2022-09-29T10:34:31;12.00;99.90
49855;DHT22;35752;52.164;21.244;2022-09-29T10:37:04;11.90;99.90
49855;DHT22;35752;52.164;21.244;2022-09-29T10:41:55;12.30;99.90
49855;DHT22;35752;52.164;21.244;2022-09-29T10:44:21;12.20;99.90
49855;DHT22;35752;52.164;21.244;2022-09-29T10:46:48;12.40;99.90
49855;DHT22;35752;52.164;21.244;2022-09-29T10:51:58;12.80;99.90
49855;DHT22;35752;52.164;21.244;2022-09-29T10:54:25;12.80;99.90
49855;DHT22;35752;52.164;21.244;2022-09-29T10:56:51;12.90;99.90
49855;DHT22;35752;52.164;21.244;2022-09-29T10:59:17;12.80;99.90
49855;DHT22;35752;52.164;21.244;2022-09-29T11:01:50;12.80;99.90
49855;DHT22;35752;52.164;21.244;2022-09-29T11:04:22;12.60;99.90
49855;DHT22;35752;52.164;21.244;2022-09-29T11:06:48;12.50;99.90
49855;DHT22;35752;52.164;21.244;2022-09-29T11:16:57;12.70;99.90
49855;DHT22;35752;52.164;21.244;2022-09-29T11:19:23;12.70;99.90
49855;DHT22;35752;52.164;21.244;2022-09-29T11:24:42;12.60;99.90
49855;DHT22;35752;52.164;21.244;2022-09-29T11:29:39;12.70;99.90
49855;DHT22;35752;52.164;21.244;2022-09-29T11:32:12;12.70;99.90
49855;DHT22;35752;52.164;21.244;2022-09-29T11:39:57;12.50;99.90
49855;DHT22;35752;52.164;21.244;2022-09-29T11:42:33;12.60;99.90
49855;DHT22;35752;52.164;21.244;2022-09-29T11:45:03;12.70;99.90
49855;DHT22;35752;52.164;21.244;2022-09-29T11:47:50;12.80;99.90
49855;DHT22;35752;52.164;21.244;2022-09-29T11:50:24;12.70;99.90
49855;DHT22;35752;52.164;21.244;2022-09-29T11:53:00;12.80;99.90
49855;DHT22;35752;52.164;21.244;2022-09-29T11:55:29;12.80;99.90
49855;DHT22;35752;52.164;21.244;2022-09-29T11:58:13;12.80;99.90
49855;DHT22;35752;52.164;21.244;2022-09-29T12:11:13;13.20;99.90
49855;DHT22;35752;52.164;21.244;2022-09-29T12:13:44;13.10;99.90
49855;DHT22;35752;52.164;21.244;2022-09-29T12:16:21;13.00;99.90
49855;DHT22;35752;52.164;21.244;2022-09-29T12:21:33;12.90;99.90
49855;DHT22;35752;52.164;21.244;2022-09-29T12:24:03;12.90;99.90
49855;DHT22;35752;52.164;21.244;2022-09-29T12:26:30;12.90;99.90
49855;DHT22;35752;52.164;21.244;2022-09-29T12:31:31;12.90;99.90
49855;DHT22;35752;52.164;21.244;2022-09-29T12:34:05;12.90;99.90
49855;DHT22;35752;52.164;21.244;2022-09-29T12:41:55;12.90;99.90
49855;DHT22;35752;52.164;21.244;2022-09-29T12:44:28;12.70;99.90
49855;DHT22;35752;52.164;21.244;2022-09-29T12:46:57;12.80;99.90
49855;DHT22;35752;52.164;21.244;2022-09-29T12:49:25;12.70;99.90
49855;DHT22;35752;52.164;21.244;2022-09-29T12:51:53;12.50;99.90
49855;DHT22;35752;52.164;21.244;2022-09-29T12:54:39;12.50;99.90
49855;DHT22;35752;52.164;21.244;2022-09-29T12:57:17;12.40;99.90
49855;DHT22;35752;52.164;21.244;2022-09-29T13:07:51;12.40;99.90
49855;DHT22;35752;52.164;21.244;2022-09-29T13:28:43;13.10;99.90
49855;DHT22;35752;52.164;21.244;2022-09-29T13:31:11;13.10;99.90
49855;DHT22;35752;52.164;21.244;2022-09-29T13:33:38;13.00;99.90
49855;DHT22;35752;52.164;21.244;2022-09-29T13:36:04;13.10;99.90
49855;DHT22;35752;52.164;21.244;2022-09-29T13:38:31;13.00;99.90
49855;DHT22;35752;52.164;21.244;2022-09-29T13:41:14;13.00;99.90
49855;DHT22;35752;52.164;21.244;2022-09-29T13:51:46;12.90;99.90
49855;DHT22;35752;52.164;21.244;2022-09-29T13:56:49;13.20;99.90
49855;DHT22;35752;52.164;21.244;2022-09-29T13:59:17;13.20;99.90
49855;DHT22;35752;52.164;21.244;2022-09-29T14:01:45;13.30;99.90
49855;DHT22;35752;52.164;21.244;2022-09-29T14:06:55;13.30;99.90
49855;DHT22;35752;52.164;21.244;2022-09-29T14:09:23;13.20;99.90
49855;DHT22;35752;52.164;21.244;2022-09-29T14:11:50;13.10;99.90
49855;DHT22;35752;52.164;21.244;2022-09-29T14:14:29;13.10;99.90
49855;DHT22;35752;52.164;21.244;2022-09-29T14:22:01;12.80;99.90
49855;DHT22;35752;52.164;21.244;2022-09-29T14:29:36;12.80;99.90
49855;DHT22;35752;52.164;21.244;2022-09-29T14:32:09;12.60;99.90
49855;DHT22;35752;52.164;21.244;2022-09-29T14:34:39;12.50;99.90
49855;DHT22;35752;52.164;21.244;2022-09-29T14:37:05;12.40;99.90
49855;DHT22;35752;52.164;21.244;2022-09-29T14:39:31;12.30;99.90
49855;DHT22;35752;52.164;21.244;2022-09-29T14:41:57;12.30;99.90
49855;DHT22;35752;52.164;21.244;2022-09-29T15:00:24;12.00;99.90
49855;DHT22;35752;52.164;21.244;2022-09-29T15:02:53;11.90;99.90
49855;DHT22;35752;52.164;21.244;2022-09-29T15:07:51;11.80;99.90
49855;DHT22;35752;52.164;21.244;2022-09-29T15:10:19;11.80;99.90
49855;DHT22;35752;52.164;21.244;2022-09-29T15:12:45;11.80;99.90
49855;DHT22;35752;52.164;21.244;2022-09-29T15:15:26;11.70;99.90
49855;DHT22;35752;52.164;21.244;2022-09-29T15:17:53;11.60;99.90
49855;DHT22;35752;52.164;21.244;2022-09-29T15:27:54;11.50;99.90
49855;DHT22;35752;52.164;21.244;2022-09-29T15:30:21;11.50;99.90
49855;DHT22;35752;52.164;21.244;2022-09-29T15:32:47;11.50;99.90
49855;DHT22;35752;52.164;21.244;2022-09-29T15:35:15;11.40;99.90
49855;DHT22;35752;52.164;21.244;2022-09-29T15:40:13;11.20;99.90
49855;DHT22;35752;52.164;21.244;2022-09-29T15:42:38;11.10;99.90
49855;DHT22;35752;52.164;21.244;2022-09-29T15:45:07;11.00;99.90
49855;DHT22;35752;52.164;21.244;2022-09-29T15:47:36;10.90;99.90
49855;DHT22;35752;52.164;21.244;2022-09-29T15:50:04;10.80;99.90
49855;DHT22;35752;52.164;21.244;2022-09-29T15:52:29;10.70;99.90
49855;DHT22;35752;52.164;21.244;2022-09-29T15:54:56;10.70;99.90
49855;DHT22;35752;52.164;21.244;2022-09-29T15:57:41;10.70;99.90
49855;DHT22;35752;52.164;21.244;2022-09-29T16:00:40;10.70;99.90
49855;DHT22;35752;52.164;21.244;2022-09-29T16:03:07;10.70;99.90
49855;DHT22;35752;52.164;21.244;2022-09-29T16:05:35;10.60;99.90
49855;DHT22;35752;52.164;21.244;2022-09-29T16:08:20;10.50;99.90
49855;DHT22;35752;52.164;21.244;2022-09-29T16:10:48;10.40;99.90
49855;DHT22;35752;52.164;21.244;2022-09-29T16:13:16;10.30;99.90
49855;DHT22;35752;52.164;21.244;2022-09-29T16:15:43;10.30;99.90
49855;DHT22;35752;52.164;21.244;2022-09-29T16:20:42;10.20;99.90
49855;DHT22;35752;52.164;21.244;2022-09-29T16:23:16;10.10;99.90
49855;DHT22;35752;52.164;21.244;2022-09-29T16:25:42;10.10;99.90
49855;DHT22;35752;52.164;21.244;2022-09-29T16:28:22;10.00;99.90
49855;DHT22;35752;52.164;21.244;2022-09-29T16:30:59;10.00;99.90
49855;DHT22;35752;52.164;21.244;2022-09-29T16:33:24;9.90;99.90
49855;DHT22;35752;52.164;21.244;2022-09-29T16:40:42;9.70;99.90
49855;DHT22;35752;52.164;21.244;2022-09-29T16:43:17;9.60;99.90
49855;DHT22;35752;52.164;21.244;2022-09-29T16:45:46;9.60;99.90
49855;DHT22;35752;52.164;21.244;2022-09-29T16:48:12;9.50;99.90
49855;DHT22;35752;52.164;21.244;2022-09-29T16:50:44;9.50;99.90
49855;DHT22;35752;52.164;21.244;2022-09-29T16:53:15;9.30;99.90
49855;DHT22;35752;52.164;21.244;2022-09-29T16:55:41;9.20;99.90
49855;DHT22;35752;52.164;21.244;2022-09-29T16:58:19;9.10;99.90
49855;DHT22;35752;52.164;21.244;2022-09-29T17:00:44;9.00;99.90
49855;DHT22;35752;52.164;21.244;2022-09-29T17:03:11;9.00;99.90
49855;DHT22;35752;52.164;21.244;2022-09-29T17:05:39;9.00;99.90
49855;DHT22;35752;52.164;21.244;2022-09-29T17:08:13;8.90;99.90
49855;DHT22;35752;52.164;21.244;2022-09-29T17:10:39;8.90;99.90
49855;DHT22;35752;52.164;21.244;2022-09-29T17:13:11;8.80;99.90
49855;DHT22;35752;52.164;21.244;2022-09-29T17:15:41;8.80;99.90
49855;DHT22;35752;52.164;21.244;2022-09-29T17:18:09;8.80;99.90
49855;DHT22;35752;52.164;21.244;2022-09-29T17:20:35;8.80;99.90
49855;DHT22;35752;52.164;21.244;2022-09-29T17:23:00;8.70;99.90
49855;DHT22;35752;52.164;21.244;2022-09-29T17:25:26;8.70;99.90
49855;DHT22;35752;52.164;21.244;2022-09-29T17:27:52;8.60;99.90
49855;DHT22;35752;52.164;21.244;2022-09-29T17:30:37;8.60;99.90
49855;DHT22;35752;52.164;21.244;2022-09-29T17:33:03;8.60;99.90
49855;DHT22;35752;52.164;21.244;2022-09-29T17:35:32;8.50;99.90
49855;DHT22;35752;52.164;21.244;2022-09-29T17:37:58;8.50;99.90
49855;DHT22;35752;52.164;21.244;2022-09-29T17:40:26;8.30;99.90
49855;DHT22;35752;52.164;21.244;2022-09-29T17:42:54;8.30;99.90
49855;DHT22;35752;52.164;21.244;2022-09-29T17:45:23;8.30;99.90
49855;DHT22;35752;52.164;21.244;2022-09-29T17:47:50;8.30;99.90
49855;DHT22;35752;52.164;21.244;2022-09-29T17:50:32;8.20;99.90
49855;DHT22;35752;52.164;21.244;2022-09-29T17:53:00;8.10;99.90
49855;DHT22;35752;52.164;21.244;2022-09-29T17:55:28;7.90;99.90
49855;DHT22;35752;52.164;21.244;2022-09-29T17:57:54;7.90;99.90
49855;DHT22;35752;52.164;21.244;2022-09-29T18:00:21;7.80;99.90
49855;DHT22;35752;52.164;21.244;2022-09-29T18:02:47;7.50;99.90
49855;DHT22;35752;52.164;21.244;2022-09-29T18:05:14;7.40;99.90
49855;DHT22;35752;52.164;21.244;2022-09-29T18:07:40;7.40;99.90
49855;DHT22;35752;52.164;21.244;2022-09-29T18:12:43;7.40;99.90
49855;DHT22;35752;52.164;21.244;2022-09-29T18:15:09;7.40;99.90
49855;DHT22;35752;52.164;21.244;2022-09-29T18:17:34;7.40;99.90
49855;DHT22;35752;52.164;21.244;2022-09-29T18:20:13;7.50;99.90
49855;DHT22;35752;52.164;21.244;2022-09-29T18:22:40;7.40;99.90
49855;DHT22;35752;52.164;21.244;2022-09-29T18:25:06;7.40;99.90
49855;DHT22;35752;52.164;21.244;2022-09-29T18:27:32;7.30;99.90
49855;DHT22;35752;52.164;21.244;2022-09-29T18:29:57;7.30;99.90
49855;DHT22;35752;52.164;21.244;2022-09-29T18:32:23;7.40;99.90
49855;DHT22;35752;52.164;21.244;2022-09-29T18:34:48;7.30;99.90